sensor_id;sensor_type;location;lat;lon;timestamp;P1;durP1;ratioP1;P2;durP2;ratioP2
6665;SDS011;3369;49.906;8.598;2023-11-22T00:00:52;1.70;;;1.60;;
6665;SDS011;3369;49.906;8.598;2023-11-22T00:03:17;1.50;;;1.40;;
6665;SDS011;3369;49.906;8.598;2023-11-22T00:05:44;1.48;;;1.38;;
6665;SDS011;3369;49.906;8.598;2023-11-22T00:08:09;1.70;;;1.60;;
6665;SDS011;3369;49.906;8.598;2023-11-22T00:10:35;1.50;;;1.40;;
6665;SDS011;3369;49.906;8.598;2023-11-22T00:13:00;1.30;;;1.30;;
6665;SDS011;3369;49.906;8.598;2023-11-22T00:15:26;1.60;;;1.50;;
6665;SDS011;3369;49.906;8.598;2023-11-22T00:17:52;1.40;;;1.30;;
6665;SDS011;3369;49.906;8.598;2023-11-22T00:20:18;1.55;;;1.45;;
6665;SDS011;3369;49.906;8.598;2023-11-22T00:22:44;1.50;;;1.40;;
6665;SDS011;3369;49.906;8.598;2023-11-22T00:25:10;1.55;;;1.45;;
6665;SDS011;3369;49.906;8.598;2023-11-22T00:27:38;1.95;;;1.50;;
6665;SDS011;3369;49.906;8.598;2023-11-22T00:30:04;1.60;;;1.50;;
6665;SDS011;3369;49.906;8.598;2023-11-22T00:32:30;1.63;;;1.50;;
6665;SDS011;3369;49.906;8.598;2023-11-22T00:34:55;1.60;;;1.50;;
6665;SDS011;3369;49.906;8.598;2023-11-22T00:37:21;1.50;;;1.40;;
6665;SDS011;3369;49.906;8.598;2023-11-22T00:39:46;1.40;;;1.30;;
6665;SDS011;3369;49.906;8.598;2023-11-22T00:42:12;1.40;;;1.30;;
6665;SDS011;3369;49.906;8.598;2023-11-22T00:44:38;1.50;;;1.40;;
6665;SDS011;3369;49.906;8.598;2023-11-22T00:47:03;1.10;;;1.10;;
6665;SDS011;3369;49.906;8.598;2023-11-22T00:49:30;1.50;;;1.40;;
6665;SDS011;3369;49.906;8.598;2023-11-22T00:51:55;1.60;;;1.50;;
6665;SDS011;3369;49.906;8.598;2023-11-22T00:54:21;1.55;;;1.45;;
6665;SDS011;3369;49.906;8.598;2023-11-22T00:56:47;1.50;;;1.40;;
6665;SDS011;3369;49.906;8.598;2023-11-22T00:59:13;1.30;;;1.20;;
6665;SDS011;3369;49.906;8.598;2023-11-22T01:01:41;1.10;;;1.10;;
6665;SDS011;3369;49.906;8.598;2023-11-22T01:04:07;1.30;;;1.20;;
6665;SDS011;3369;49.906;8.598;2023-11-22T01:06:33;1.50;;;1.35;;
6665;SDS011;3369;49.906;8.598;2023-11-22T01:08:59;1.30;;;1.20;;
6665;SDS011;3369;49.906;8.598;2023-11-22T01:11:25;1.50;;;1.40;;
6665;SDS011;3369;49.906;8.598;2023-11-22T01:13:51;1.70;;;1.60;;
6665;SDS011;3369;49.906;8.598;2023-11-22T01:16:16;2.10;;;1.50;;
6665;SDS011;3369;49.906;8.598;2023-11-22T01:18:42;1.60;;;1.50;;
6665;SDS011;3369;49.906;8.598;2023-11-22T01:21:08;1.63;;;1.43;;
6665;SDS011;3369;49.906;8.598;2023-11-22T01:23:34;2.20;;;2.00;;
6665;SDS011;3369;49.906;8.598;2023-11-22T01:25:59;2.03;;;1.90;;
6665;SDS011;3369;49.906;8.598;2023-11-22T01:28:25;2.20;;;2.00;;
6665;SDS011;3369;49.906;8.598;2023-11-22T01:30:59;2.25;;;2.05;;
6665;SDS011;3369;49.906;8.598;2023-11-22T01:33:25;2.17;;;2.00;;
6665;SDS011;3369;49.906;8.598;2023-11-22T01:35:52;2.10;;;2.00;;
6665;SDS011;3369;49.906;8.598;2023-11-22T01:38:17;2.20;;;1.70;;
6665;SDS011;3369;49.906;8.598;2023-11-22T01:40:46;2.17;;;1.98;;
6665;SDS011;3369;49.906;8.598;2023-11-22T01:43:13;2.70;;;2.50;;
6665;SDS011;3369;49.906;8.598;2023-11-22T01:45:40;2.70;;;2.30;;
6665;SDS011;3369;49.906;8.598;2023-11-22T01:48:06;2.20;;;2.00;;
6665;SDS011;3369;49.906;8.598;2023-11-22T01:50:32;2.30;;;2.10;;
6665;SDS011;3369;49.906;8.598;2023-11-22T01:52:58;2.17;;;2.08;;
6665;SDS011;3369;49.906;8.598;2023-11-22T01:55:25;2.08;;;1.98;;
6665;SDS011;3369;49.906;8.598;2023-11-22T01:57:50;2.10;;;2.00;;
6665;SDS011;3369;49.906;8.598;2023-11-22T02:00:16;2.10;;;2.00;;
6665;SDS011;3369;49.906;8.598;2023-11-22T02:02:43;2.30;;;2.20;;
6665;SDS011;3369;49.906;8.598;2023-11-22T02:05:09;2.40;;;2.20;;
6665;SDS011;3369;49.906;8.598;2023-11-22T02:07:35;2.55;;;2.30;;
6665;SDS011;3369;49.906;8.598;2023-11-22T02:10:00;2.40;;;2.30;;
6665;SDS011;3369;49.906;8.598;2023-11-22T02:12:28;2.75;;;2.50;;
6665;SDS011;3369;49.906;8.598;2023-11-22T02:14:53;2.60;;;2.40;;
6665;SDS011;3369;49.906;8.598;2023-11-22T02:17:19;2.70;;;2.50;;
6665;SDS011;3369;49.906;8.598;2023-11-22T02:19:44;2.80;;;2.60;;
6665;SDS011;3369;49.906;8.598;2023-11-22T02:22:10;2.85;;;2.65;;
6665;SDS011;3369;49.906;8.598;2023-11-22T02:24:36;3.00;;;2.80;;
6665;SDS011;3369;49.906;8.598;2023-11-22T02:27:01;2.80;;;2.60;;
6665;SDS011;3369;49.906;8.598;2023-11-22T02:29:27;3.23;;;2.93;;
6665;SDS011;3369;49.906;8.598;2023-11-22T02:31:54;2.97;;;2.77;;
6665;SDS011;3369;49.906;8.598;2023-11-22T02:34:19;3.17;;;2.87;;
6665;SDS011;3369;49.906;8.598;2023-11-22T02:36:45;3.10;;;2.80;;
6665;SDS011;3369;49.906;8.598;2023-11-22T02:39:10;3.42;;;3.10;;
6665;SDS011;3369;49.906;8.598;2023-11-22T02:41:38;3.10;;;2.90;;
6665;SDS011;3369;49.906;8.598;2023-11-22T02:44:04;3.00;;;2.80;;
6665;SDS011;3369;49.906;8.598;2023-11-22T02:46:31;2.80;;;2.60;;
6665;SDS011;3369;49.906;8.598;2023-11-22T02:48:58;3.25;;;2.95;;
6665;SDS011;3369;49.906;8.598;2023-11-22T02:51:24;3.15;;;2.95;;
6665;SDS011;3369;49.906;8.598;2023-11-22T02:53:50;3.15;;;2.90;;
6665;SDS011;3369;49.906;8.598;2023-11-22T02:56:16;3.00;;;2.70;;
6665;SDS011;3369;49.906;8.598;2023-11-22T02:58:42;3.10;;;2.90;;
6665;SDS011;3369;49.906;8.598;2023-11-22T03:01:08;3.03;;;2.78;;
6665;SDS011;3369;49.906;8.598;2023-11-22T03:03:34;3.75;;;3.00;;
6665;SDS011;3369;49.906;8.598;2023-11-22T03:06:00;3.08;;;2.88;;
6665;SDS011;3369;49.906;8.598;2023-11-22T03:08:26;3.17;;;2.97;;
6665;SDS011;3369;49.906;8.598;2023-11-22T03:10:52;3.58;;;3.00;;
6665;SDS011;3369;49.906;8.598;2023-11-22T03:13:18;3.25;;;3.05;;
6665;SDS011;3369;49.906;8.598;2023-11-22T03:15:44;3.10;;;2.90;;
6665;SDS011;3369;49.906;8.598;2023-11-22T03:18:09;3.03;;;2.78;;
6665;SDS011;3369;49.906;8.598;2023-11-22T03:20:36;3.23;;;3.00;;
6665;SDS011;3369;49.906;8.598;2023-11-22T03:23:02;3.00;;;2.80;;
6665;SDS011;3369;49.906;8.598;2023-11-22T03:25:28;2.97;;;2.77;;
6665;SDS011;3369;49.906;8.598;2023-11-22T03:27:54;3.23;;;3.03;;
6665;SDS011;3369;49.906;8.598;2023-11-22T03:30:19;3.57;;;3.27;;
6665;SDS011;3369;49.906;8.598;2023-11-22T03:32:45;5.80;;;4.03;;
6665;SDS011;3369;49.906;8.598;2023-11-22T03:35:11;3.72;;;3.30;;
6665;SDS011;3369;49.906;8.598;2023-11-22T03:37:37;3.47;;;3.17;;
6665;SDS011;3369;49.906;8.598;2023-11-22T03:40:03;3.35;;;3.05;;
6665;SDS011;3369;49.906;8.598;2023-11-22T03:42:28;3.00;;;2.80;;
6665;SDS011;3369;49.906;8.598;2023-11-22T03:44:54;2.97;;;2.77;;
6665;SDS011;3369;49.906;8.598;2023-11-22T03:47:20;2.80;;;2.60;;
6665;SDS011;3369;49.906;8.598;2023-11-22T03:49:46;2.90;;;2.70;;
6665;SDS011;3369;49.906;8.598;2023-11-22T03:52:11;3.33;;;3.08;;
6665;SDS011;3369;49.906;8.598;2023-11-22T03:54:39;3.20;;;3.00;;
6665;SDS011;3369;49.906;8.598;2023-11-22T03:57:04;3.97;;;3.57;;
6665;SDS011;3369;49.906;8.598;2023-11-22T03:59:30;4.20;;;3.78;;
6665;SDS011;3369;49.906;8.598;2023-11-22T04:01:56;4.82;;;4.32;;
6665;SDS011;3369;49.906;8.598;2023-11-22T04:04:22;4.63;;;4.15;;
6665;SDS011;3369;49.906;8.598;2023-11-22T04:06:48;4.60;;;4.20;;
6665;SDS011;3369;49.906;8.598;2023-11-22T04:09:14;4.07;;;3.70;;
6665;SDS011;3369;49.906;8.598;2023-11-22T04:11:41;4.07;;;3.50;;
6665;SDS011;3369;49.906;8.598;2023-11-22T04:14:07;3.93;;;3.60;;
6665;SDS011;3369;49.906;8.598;2023-11-22T04:16:33;3.42;;;3.13;;
6665;SDS011;3369;49.906;8.598;2023-11-22T04:18:59;3.07;;;2.87;;
6665;SDS011;3369;49.906;8.598;2023-11-22T04:21:25;3.83;;;3.53;;
6665;SDS011;3369;49.906;8.598;2023-11-22T04:23:50;3.70;;;3.30;;
6665;SDS011;3369;49.906;8.598;2023-11-22T04:26:16;3.90;;;3.60;;
6665;SDS011;3369;49.906;8.598;2023-11-22T04:28:41;3.53;;;3.23;;
6665;SDS011;3369;49.906;8.598;2023-11-22T04:31:07;3.65;;;3.35;;
6665;SDS011;3369;49.906;8.598;2023-11-22T04:33:34;3.90;;;3.60;;
6665;SDS011;3369;49.906;8.598;2023-11-22T04:35:59;4.30;;;3.90;;
6665;SDS011;3369;49.906;8.598;2023-11-22T04:38:25;3.70;;;3.40;;
6665;SDS011;3369;49.906;8.598;2023-11-22T04:40:51;3.83;;;3.53;;
6665;SDS011;3369;49.906;8.598;2023-11-22T04:43:17;3.17;;;2.97;;
6665;SDS011;3369;49.906;8.598;2023-11-22T04:45:42;3.93;;;3.63;;
6665;SDS011;3369;49.906;8.598;2023-11-22T04:48:08;4.13;;;3.73;;
6665;SDS011;3369;49.906;8.598;2023-11-22T04:50:34;4.10;;;3.80;;
6665;SDS011;3369;49.906;8.598;2023-11-22T04:53:00;3.45;;;3.15;;
6665;SDS011;3369;49.906;8.598;2023-11-22T04:55:26;3.90;;;3.60;;
6665;SDS011;3369;49.906;8.598;2023-11-22T04:57:53;3.75;;;3.45;;
6665;SDS011;3369;49.906;8.598;2023-11-22T05:00:19;3.35;;;3.05;;
6665;SDS011;3369;49.906;8.598;2023-11-22T05:02:47;3.60;;;3.30;;
6665;SDS011;3369;49.906;8.598;2023-11-22T05:05:13;5.10;;;3.60;;
6665;SDS011;3369;49.906;8.598;2023-11-22T05:07:39;3.92;;;3.53;;
6665;SDS011;3369;49.906;8.598;2023-11-22T05:10:05;3.80;;;3.50;;
6665;SDS011;3369;49.906;8.598;2023-11-22T05:12:34;3.92;;;3.63;;
6665;SDS011;3369;49.906;8.598;2023-11-22T05:14:59;3.72;;;3.42;;
6665;SDS011;3369;49.906;8.598;2023-11-22T05:17:25;3.72;;;3.42;;
6665;SDS011;3369;49.906;8.598;2023-11-22T05:19:51;3.87;;;3.57;;
6665;SDS011;3369;49.906;8.598;2023-11-22T05:22:17;3.95;;;3.55;;
6665;SDS011;3369;49.906;8.598;2023-11-22T05:24:42;4.60;;;3.78;;
6665;SDS011;3369;49.906;8.598;2023-11-22T05:27:09;4.60;;;3.85;;
6665;SDS011;3369;49.906;8.598;2023-11-22T05:29:35;4.13;;;3.83;;
6665;SDS011;3369;49.906;8.598;2023-11-22T05:32:01;3.80;;;3.50;;
6665;SDS011;3369;49.906;8.598;2023-11-22T05:34:27;4.15;;;3.75;;
6665;SDS011;3369;49.906;8.598;2023-11-22T05:36:53;3.80;;;3.50;;
6665;SDS011;3369;49.906;8.598;2023-11-22T05:39:19;4.10;;;3.70;;
6665;SDS011;3369;49.906;8.598;2023-11-22T05:41:47;3.55;;;3.25;;
6665;SDS011;3369;49.906;8.598;2023-11-22T05:44:13;4.10;;;3.70;;
6665;SDS011;3369;49.906;8.598;2023-11-22T05:46:39;3.20;;;3.00;;
6665;SDS011;3369;49.906;8.598;2023-11-22T05:49:04;3.40;;;3.10;;
6665;SDS011;3369;49.906;8.598;2023-11-22T05:51:30;3.70;;;3.40;;
6665;SDS011;3369;49.906;8.598;2023-11-22T05:53:56;4.10;;;3.20;;
6665;SDS011;3369;49.906;8.598;2023-11-22T05:56:21;2.97;;;2.75;;
6665;SDS011;3369;49.906;8.598;2023-11-22T05:58:47;3.43;;;3.13;;
6665;SDS011;3369;49.906;8.598;2023-11-22T06:01:13;3.80;;;3.40;;
6665;SDS011;3369;49.906;8.598;2023-11-22T06:03:39;4.57;;;3.67;;
6665;SDS011;3369;49.906;8.598;2023-11-22T06:06:05;5.67;;;4.43;;
6665;SDS011;3369;49.906;8.598;2023-11-22T06:08:31;5.03;;;4.27;;
6665;SDS011;3369;49.906;8.598;2023-11-22T06:10:57;4.03;;;3.63;;
6665;SDS011;3369;49.906;8.598;2023-11-22T06:13:24;3.97;;;3.67;;
6665;SDS011;3369;49.906;8.598;2023-11-22T06:15:50;3.60;;;3.30;;
6665;SDS011;3369;49.906;8.598;2023-11-22T06:18:15;3.58;;;3.28;;
6665;SDS011;3369;49.906;8.598;2023-11-22T06:20:41;3.30;;;3.00;;
6665;SDS011;3369;49.906;8.598;2023-11-22T06:23:07;3.70;;;3.40;;
6665;SDS011;3369;49.906;8.598;2023-11-22T06:25:33;3.08;;;2.88;;
6665;SDS011;3369;49.906;8.598;2023-11-22T06:28:01;3.55;;;3.25;;
6665;SDS011;3369;49.906;8.598;2023-11-22T06:30:27;3.33;;;3.03;;
6665;SDS011;3369;49.906;8.598;2023-11-22T06:32:52;3.70;;;3.40;;
6665;SDS011;3369;49.906;8.598;2023-11-22T06:35:18;5.22;;;4.38;;
6665;SDS011;3369;49.906;8.598;2023-11-22T06:37:44;4.15;;;3.75;;
6665;SDS011;3369;49.906;8.598;2023-11-22T06:40:11;3.90;;;3.60;;
6665;SDS011;3369;49.906;8.598;2023-11-22T06:42:40;3.58;;;3.28;;
6665;SDS011;3369;49.906;8.598;2023-11-22T06:45:06;3.60;;;3.30;;
6665;SDS011;3369;49.906;8.598;2023-11-22T06:47:35;3.40;;;3.10;;
6665;SDS011;3369;49.906;8.598;2023-11-22T06:50:01;3.35;;;3.15;;
6665;SDS011;3369;49.906;8.598;2023-11-22T06:52:29;3.30;;;3.00;;
6665;SDS011;3369;49.906;8.598;2023-11-22T06:54:54;3.30;;;3.00;;
6665;SDS011;3369;49.906;8.598;2023-11-22T06:57:20;3.30;;;3.00;;
6665;SDS011;3369;49.906;8.598;2023-11-22T06:59:53;3.37;;;3.07;;
6665;SDS011;3369;49.906;8.598;2023-11-22T07:02:19;3.57;;;3.27;;
6665;SDS011;3369;49.906;8.598;2023-11-22T07:04:44;3.57;;;3.27;;
6665;SDS011;3369;49.906;8.598;2023-11-22T07:07:10;3.70;;;3.40;;
6665;SDS011;3369;49.906;8.598;2023-11-22T07:09:36;3.60;;;3.30;;
6665;SDS011;3369;49.906;8.598;2023-11-22T07:12:02;3.80;;;3.40;;
6665;SDS011;3369;49.906;8.598;2023-11-22T07:14:31;3.57;;;3.27;;
6665;SDS011;3369;49.906;8.598;2023-11-22T07:16:57;3.53;;;3.25;;
6665;SDS011;3369;49.906;8.598;2023-11-22T07:19:23;3.53;;;3.22;;
6665;SDS011;3369;49.906;8.598;2023-11-22T07:21:48;2.97;;;2.78;;
6665;SDS011;3369;49.906;8.598;2023-11-22T07:24:14;3.22;;;3.00;;
6665;SDS011;3369;49.906;8.598;2023-11-22T07:26:41;3.65;;;3.30;;
6665;SDS011;3369;49.906;8.598;2023-11-22T07:29:07;3.22;;;3.03;;
6665;SDS011;3369;49.906;8.598;2023-11-22T07:31:33;4.03;;;3.63;;
6665;SDS011;3369;49.906;8.598;2023-11-22T07:33:59;4.03;;;3.63;;
6665;SDS011;3369;49.906;8.598;2023-11-22T07:36:26;3.30;;;3.00;;
6665;SDS011;3369;49.906;8.598;2023-11-22T07:38:53;3.35;;;2.97;;
6665;SDS011;3369;49.906;8.598;2023-11-22T07:41:19;3.50;;;3.20;;
6665;SDS011;3369;49.906;8.598;2023-11-22T07:43:46;3.55;;;3.10;;
6665;SDS011;3369;49.906;8.598;2023-11-22T07:46:12;3.47;;;3.17;;
6665;SDS011;3369;49.906;8.598;2023-11-22T07:48:41;3.17;;;2.88;;
6665;SDS011;3369;49.906;8.598;2023-11-22T07:51:07;3.05;;;2.75;;
6665;SDS011;3369;49.906;8.598;2023-11-22T07:53:33;4.38;;;3.90;;
6665;SDS011;3369;49.906;8.598;2023-11-22T07:55:59;3.85;;;3.47;;
6665;SDS011;3369;49.906;8.598;2023-11-22T07:58:29;3.53;;;3.22;;
6665;SDS011;3369;49.906;8.598;2023-11-22T08:00:56;3.10;;;2.80;;
6665;SDS011;3369;49.906;8.598;2023-11-22T08:03:22;3.40;;;3.10;;
6665;SDS011;3369;49.906;8.598;2023-11-22T08:05:50;2.92;;;2.72;;
6665;SDS011;3369;49.906;8.598;2023-11-22T08:08:18;3.30;;;3.00;;
6665;SDS011;3369;49.906;8.598;2023-11-22T08:10:45;3.65;;;3.35;;
6665;SDS011;3369;49.906;8.598;2023-11-22T08:13:12;3.55;;;3.25;;
6665;SDS011;3369;49.906;8.598;2023-11-22T08:15:38;3.88;;;3.47;;
6665;SDS011;3369;49.906;8.598;2023-11-22T08:18:04;3.30;;;3.00;;
6665;SDS011;3369;49.906;8.598;2023-11-22T08:20:30;3.63;;;3.33;;
6665;SDS011;3369;49.906;8.598;2023-11-22T08:22:56;3.60;;;3.30;;
6665;SDS011;3369;49.906;8.598;2023-11-22T08:25:22;3.40;;;3.10;;
6665;SDS011;3369;49.906;8.598;2023-11-22T08:27:47;3.30;;;3.00;;
6665;SDS011;3369;49.906;8.598;2023-11-22T08:30:13;3.60;;;2.95;;
6665;SDS011;3369;49.906;8.598;2023-11-22T08:32:41;3.15;;;2.85;;
6665;SDS011;3369;49.906;8.598;2023-11-22T08:35:08;3.55;;;3.25;;
6665;SDS011;3369;49.906;8.598;2023-11-22T08:37:34;4.30;;;3.90;;
6665;SDS011;3369;49.906;8.598;2023-11-22T08:40:03;3.40;;;3.10;;
6665;SDS011;3369;49.906;8.598;2023-11-22T08:42:30;3.72;;;3.42;;
6665;SDS011;3369;49.906;8.598;2023-11-22T08:44:55;3.67;;;3.37;;
6665;SDS011;3369;49.906;8.598;2023-11-22T08:47:21;3.30;;;3.00;;
6665;SDS011;3369;49.906;8.598;2023-11-22T08:49:46;3.55;;;3.10;;
6665;SDS011;3369;49.906;8.598;2023-11-22T08:52:13;2.95;;;2.75;;
6665;SDS011;3369;49.906;8.598;2023-11-22T08:54:39;3.50;;;2.90;;
6665;SDS011;3369;49.906;8.598;2023-11-22T08:57:04;3.50;;;3.20;;
6665;SDS011;3369;49.906;8.598;2023-11-22T08:59:31;3.15;;;2.85;;
6665;SDS011;3369;49.906;8.598;2023-11-22T09:02:03;3.08;;;2.88;;
6665;SDS011;3369;49.906;8.598;2023-11-22T09:04:31;3.28;;;3.03;;
6665;SDS011;3369;49.906;8.598;2023-11-22T09:06:56;3.30;;;3.00;;
6665;SDS011;3369;49.906;8.598;2023-11-22T09:09:22;3.63;;;3.33;;
6665;SDS011;3369;49.906;8.598;2023-11-22T09:11:55;3.22;;;2.92;;
6665;SDS011;3369;49.906;8.598;2023-11-22T09:14:22;2.92;;;2.70;;
6665;SDS011;3369;49.906;8.598;2023-11-22T09:16:48;3.20;;;2.90;;
6665;SDS011;3369;49.906;8.598;2023-11-22T09:19:19;2.90;;;2.70;;
6665;SDS011;3369;49.906;8.598;2023-11-22T09:21:48;3.33;;;3.03;;
6665;SDS011;3369;49.906;8.598;2023-11-22T09:24:14;3.33;;;3.03;;
6665;SDS011;3369;49.906;8.598;2023-11-22T09:26:40;3.65;;;3.30;;
6665;SDS011;3369;49.906;8.598;2023-11-22T09:29:06;3.58;;;3.28;;
6665;SDS011;3369;49.906;8.598;2023-11-22T09:31:32;4.10;;;3.47;;
6665;SDS011;3369;49.906;8.598;2023-11-22T09:33:58;3.63;;;3.33;;
6665;SDS011;3369;49.906;8.598;2023-11-22T09:36:23;3.70;;;3.30;;
6665;SDS011;3369;49.906;8.598;2023-11-22T09:38:52;3.45;;;3.15;;
6665;SDS011;3369;49.906;8.598;2023-11-22T09:41:18;3.40;;;3.10;;
6665;SDS011;3369;49.906;8.598;2023-11-22T09:43:44;3.70;;;3.40;;
6665;SDS011;3369;49.906;8.598;2023-11-22T09:46:14;3.10;;;2.80;;
6665;SDS011;3369;49.906;8.598;2023-11-22T09:48:42;3.15;;;2.90;;
6665;SDS011;3369;49.906;8.598;2023-11-22T09:56:08;2.78;;;2.58;;
6665;SDS011;3369;49.906;8.598;2023-11-22T09:58:39;3.20;;;3.00;;
6665;SDS011;3369;49.906;8.598;2023-11-22T10:01:12;3.15;;;2.78;;
6665;SDS011;3369;49.906;8.598;2023-11-22T10:03:38;2.80;;;2.60;;
6665;SDS011;3369;49.906;8.598;2023-11-22T10:06:04;2.90;;;2.70;;
6665;SDS011;3369;49.906;8.598;2023-11-22T10:08:31;3.17;;;2.88;;
6665;SDS011;3369;49.906;8.598;2023-11-22T10:10:57;3.15;;;2.85;;
6665;SDS011;3369;49.906;8.598;2023-11-22T10:13:23;2.97;;;2.78;;
6665;SDS011;3369;49.906;8.598;2023-11-22T10:15:49;3.05;;;2.75;;
6665;SDS011;3369;49.906;8.598;2023-11-22T10:18:16;3.03;;;2.75;;
6665;SDS011;3369;49.906;8.598;2023-11-22T10:20:43;3.45;;;3.20;;
6665;SDS011;3369;49.906;8.598;2023-11-22T10:23:15;3.47;;;3.17;;
6665;SDS011;3369;49.906;8.598;2023-11-22T10:25:46;3.10;;;2.80;;
6665;SDS011;3369;49.906;8.598;2023-11-22T10:28:18;2.88;;;2.67;;
6665;SDS011;3369;49.906;8.598;2023-11-22T10:30:48;3.33;;;3.03;;
6665;SDS011;3369;49.906;8.598;2023-11-22T10:33:15;3.40;;;3.10;;
6665;SDS011;3369;49.906;8.598;2023-11-22T10:35:45;3.20;;;2.97;;
6665;SDS011;3369;49.906;8.598;2023-11-22T10:38:13;2.95;;;2.75;;
6665;SDS011;3369;49.906;8.598;2023-11-22T10:40:42;3.05;;;2.78;;
6665;SDS011;3369;49.906;8.598;2023-11-22T10:43:12;2.90;;;2.70;;
6665;SDS011;3369;49.906;8.598;2023-11-22T10:45:42;2.83;;;2.63;;
6665;SDS011;3369;49.906;8.598;2023-11-22T10:48:14;3.03;;;2.83;;
6665;SDS011;3369;49.906;8.598;2023-11-22T10:50:46;2.85;;;2.65;;
6665;SDS011;3369;49.906;8.598;2023-11-22T10:53:13;3.20;;;2.97;;
6665;SDS011;3369;49.906;8.598;2023-11-22T10:55:41;3.65;;;3.35;;
6665;SDS011;3369;49.906;8.598;2023-11-22T10:58:09;3.42;;;3.13;;
6665;SDS011;3369;49.906;8.598;2023-11-22T11:00:38;3.28;;;2.97;;
6665;SDS011;3369;49.906;8.598;2023-11-22T11:03:14;3.08;;;2.88;;
6665;SDS011;3369;49.906;8.598;2023-11-22T11:05:42;3.60;;;3.30;;
6665;SDS011;3369;49.906;8.598;2023-11-22T11:08:14;3.25;;;2.92;;
6665;SDS011;3369;49.906;8.598;2023-11-22T11:10:45;3.00;;;2.80;;
6665;SDS011;3369;49.906;8.598;2023-11-22T11:13:11;2.80;;;2.47;;
6665;SDS011;3369;49.906;8.598;2023-11-22T11:15:38;3.10;;;2.80;;
6665;SDS011;3369;49.906;8.598;2023-11-22T11:18:07;2.80;;;2.60;;
6665;SDS011;3369;49.906;8.598;2023-11-22T11:20:48;2.72;;;2.53;;
6665;SDS011;3369;49.906;8.598;2023-11-22T11:23:15;2.70;;;2.50;;
6665;SDS011;3369;49.906;8.598;2023-11-22T11:25:51;2.77;;;2.57;;
6665;SDS011;3369;49.906;8.598;2023-11-22T11:28:18;3.08;;;2.78;;
6665;SDS011;3369;49.906;8.598;2023-11-22T11:30:48;2.47;;;2.28;;
6665;SDS011;3369;49.906;8.598;2023-11-22T11:33:17;2.60;;;2.40;;
6665;SDS011;3369;49.906;8.598;2023-11-22T11:35:51;2.58;;;2.38;;
6665;SDS011;3369;49.906;8.598;2023-11-22T11:38:20;2.67;;;2.47;;
6665;SDS011;3369;49.906;8.598;2023-11-22T11:40:47;3.08;;;2.60;;
6665;SDS011;3369;49.906;8.598;2023-11-22T11:43:38;2.80;;;2.60;;
6665;SDS011;3369;49.906;8.598;2023-11-22T11:46:09;2.90;;;2.70;;
6665;SDS011;3369;49.906;8.598;2023-11-22T11:48:36;2.70;;;2.50;;
6665;SDS011;3369;49.906;8.598;2023-11-22T11:51:01;2.70;;;2.50;;
6665;SDS011;3369;49.906;8.598;2023-11-22T11:53:27;3.20;;;2.90;;
6665;SDS011;3369;49.906;8.598;2023-11-22T11:55:53;2.80;;;2.60;;
6665;SDS011;3369;49.906;8.598;2023-11-22T11:58:19;2.90;;;2.70;;
6665;SDS011;3369;49.906;8.598;2023-11-22T12:00:45;2.75;;;2.53;;
6665;SDS011;3369;49.906;8.598;2023-11-22T12:03:10;2.97;;;2.78;;
6665;SDS011;3369;49.906;8.598;2023-11-22T12:05:37;2.88;;;2.50;;
6665;SDS011;3369;49.906;8.598;2023-11-22T12:08:03;2.70;;;2.50;;
6665;SDS011;3369;49.906;8.598;2023-11-22T12:10:29;2.58;;;2.40;;
6665;SDS011;3369;49.906;8.598;2023-11-22T12:12:55;2.53;;;2.33;;
6665;SDS011;3369;49.906;8.598;2023-11-22T12:15:20;2.45;;;2.25;;
6665;SDS011;3369;49.906;8.598;2023-11-22T12:17:48;3.00;;;2.80;;
6665;SDS011;3369;49.906;8.598;2023-11-22T12:20:16;3.75;;;3.45;;
6665;SDS011;3369;49.906;8.598;2023-11-22T12:22:46;3.60;;;3.30;;
6665;SDS011;3369;49.906;8.598;2023-11-22T12:25:13;3.80;;;3.50;;
6665;SDS011;3369;49.906;8.598;2023-11-22T12:27:39;3.38;;;3.08;;
6665;SDS011;3369;49.906;8.598;2023-11-22T12:30:06;3.00;;;2.80;;
6665;SDS011;3369;49.906;8.598;2023-11-22T12:32:33;3.13;;;2.87;;
6665;SDS011;3369;49.906;8.598;2023-11-22T12:34:58;2.57;;;2.37;;
6665;SDS011;3369;49.906;8.598;2023-11-22T12:37:24;2.93;;;2.70;;
6665;SDS011;3369;49.906;8.598;2023-11-22T12:39:52;3.03;;;2.72;;
6665;SDS011;3369;49.906;8.598;2023-11-22T12:42:19;2.92;;;2.70;;
6665;SDS011;3369;49.906;8.598;2023-11-22T12:44:49;2.53;;;2.33;;
6665;SDS011;3369;49.906;8.598;2023-11-22T12:47:30;2.80;;;2.60;;
6665;SDS011;3369;49.906;8.598;2023-11-22T12:50:00;2.55;;;2.35;;
6665;SDS011;3369;49.906;8.598;2023-11-22T12:52:26;2.85;;;2.55;;
6665;SDS011;3369;49.906;8.598;2023-11-22T12:54:52;2.67;;;2.47;;
6665;SDS011;3369;49.906;8.598;2023-11-22T12:57:18;2.73;;;2.47;;
6665;SDS011;3369;49.906;8.598;2023-11-22T12:59:44;2.77;;;2.33;;
6665;SDS011;3369;49.906;8.598;2023-11-22T13:02:09;2.70;;;2.30;;
6665;SDS011;3369;49.906;8.598;2023-11-22T13:04:35;2.60;;;2.40;;
6665;SDS011;3369;49.906;8.598;2023-11-22T13:07:00;2.75;;;2.55;;
6665;SDS011;3369;49.906;8.598;2023-11-22T13:09:26;2.97;;;2.77;;
6665;SDS011;3369;49.906;8.598;2023-11-22T13:11:52;3.30;;;3.00;;
6665;SDS011;3369;49.906;8.598;2023-11-22T13:14:17;3.03;;;2.83;;
6665;SDS011;3369;49.906;8.598;2023-11-22T13:16:43;3.05;;;2.80;;
6665;SDS011;3369;49.906;8.598;2023-11-22T13:19:10;2.38;;;2.20;;
6665;SDS011;3369;49.906;8.598;2023-11-22T13:21:36;3.20;;;2.90;;
6665;SDS011;3369;49.906;8.598;2023-11-22T13:24:01;2.83;;;2.63;;
6665;SDS011;3369;49.906;8.598;2023-11-22T13:26:29;2.83;;;2.63;;
6665;SDS011;3369;49.906;8.598;2023-11-22T13:28:54;2.70;;;2.50;;
6665;SDS011;3369;49.906;8.598;2023-11-22T13:31:21;3.35;;;3.05;;
6665;SDS011;3369;49.906;8.598;2023-11-22T13:33:46;3.25;;;2.95;;
6665;SDS011;3369;49.906;8.598;2023-11-22T13:36:12;3.80;;;3.20;;
6665;SDS011;3369;49.906;8.598;2023-11-22T13:38:39;3.03;;;2.78;;
6665;SDS011;3369;49.906;8.598;2023-11-22T13:41:05;3.00;;;2.80;;
6665;SDS011;3369;49.906;8.598;2023-11-22T13:43:31;3.08;;;2.88;;
6665;SDS011;3369;49.906;8.598;2023-11-22T13:45:59;3.42;;;3.13;;
6665;SDS011;3369;49.906;8.598;2023-11-22T13:48:25;2.88;;;2.67;;
6665;SDS011;3369;49.906;8.598;2023-11-22T13:50:51;3.00;;;2.80;;
6665;SDS011;3369;49.906;8.598;2023-11-22T13:53:17;3.10;;;2.80;;
6665;SDS011;3369;49.906;8.598;2023-11-22T13:55:47;3.45;;;3.15;;
6665;SDS011;3369;49.906;8.598;2023-11-22T13:58:15;3.70;;;3.17;;
6665;SDS011;3369;49.906;8.598;2023-11-22T14:00:40;2.85;;;2.65;;
6665;SDS011;3369;49.906;8.598;2023-11-22T14:03:06;3.08;;;2.88;;
6665;SDS011;3369;49.906;8.598;2023-11-22T14:05:33;2.70;;;2.50;;
6665;SDS011;3369;49.906;8.598;2023-11-22T14:08:00;3.17;;;2.97;;
6665;SDS011;3369;49.906;8.598;2023-11-22T14:10:26;2.97;;;2.60;;
6665;SDS011;3369;49.906;8.598;2023-11-22T14:12:51;2.75;;;2.55;;
6665;SDS011;3369;49.906;8.598;2023-11-22T14:15:18;3.28;;;2.97;;
6665;SDS011;3369;49.906;8.598;2023-11-22T14:17:46;3.20;;;2.90;;
6665;SDS011;3369;49.906;8.598;2023-11-22T14:20:16;3.30;;;3.00;;
6665;SDS011;3369;49.906;8.598;2023-11-22T14:22:42;2.90;;;2.70;;
6665;SDS011;3369;49.906;8.598;2023-11-22T14:25:08;3.30;;;3.00;;
6665;SDS011;3369;49.906;8.598;2023-11-22T14:27:38;3.10;;;2.60;;
6665;SDS011;3369;49.906;8.598;2023-11-22T14:30:05;2.67;;;2.42;;
6665;SDS011;3369;49.906;8.598;2023-11-22T14:32:33;2.80;;;2.60;;
6665;SDS011;3369;49.906;8.598;2023-11-22T14:35:00;2.83;;;2.63;;
6665;SDS011;3369;49.906;8.598;2023-11-22T14:37:29;2.70;;;2.50;;
6665;SDS011;3369;49.906;8.598;2023-11-22T14:39:55;2.80;;;2.60;;
6665;SDS011;3369;49.906;8.598;2023-11-22T14:42:21;3.50;;;3.20;;
6665;SDS011;3369;49.906;8.598;2023-11-22T14:44:48;3.40;;;3.10;;
6665;SDS011;3369;49.906;8.598;2023-11-22T14:47:13;3.23;;;2.93;;
6665;SDS011;3369;49.906;8.598;2023-11-22T14:49:47;2.70;;;2.50;;
6665;SDS011;3369;49.906;8.598;2023-11-22T14:52:16;2.47;;;2.28;;
6665;SDS011;3369;49.906;8.598;2023-11-22T14:54:42;2.57;;;2.37;;
6665;SDS011;3369;49.906;8.598;2023-11-22T14:57:10;3.07;;;2.83;;
6665;SDS011;3369;49.906;8.598;2023-11-22T14:59:37;2.85;;;2.65;;
6665;SDS011;3369;49.906;8.598;2023-11-22T15:02:03;2.70;;;2.50;;
6665;SDS011;3369;49.906;8.598;2023-11-22T15:04:34;2.78;;;2.47;;
6665;SDS011;3369;49.906;8.598;2023-11-22T15:07:01;2.70;;;2.50;;
6665;SDS011;3369;49.906;8.598;2023-11-22T15:09:28;2.17;;;2.08;;
6665;SDS011;3369;49.906;8.598;2023-11-22T15:11:53;2.47;;;2.27;;
6665;SDS011;3369;49.906;8.598;2023-11-22T15:14:20;2.30;;;2.10;;
6665;SDS011;3369;49.906;8.598;2023-11-22T15:16:47;2.35;;;2.20;;